sensor_id;sensor_type;location;lat;lon;timestamp;P1;durP1;ratioP1;P2;durP2;ratioP2
20794;SDS011;28087;-33.874;151.240;2023-06-14T00:00:39;3.15;;;0.90;;
20794;SDS011;28087;-33.874;151.240;2023-06-14T00:03:14;2.88;;;0.90;;
20794;SDS011;28087;-33.874;151.240;2023-06-14T00:05:53;3.10;;;0.82;;
20794;SDS011;28087;-33.874;151.240;2023-06-14T00:08:29;3.75;;;0.90;;
20794;SDS011;28087;-33.874;151.240;2023-06-14T00:11:04;3.95;;;0.90;;
20794;SDS011;28087;-33.874;151.240;2023-06-14T00:13:40;4.88;;;1.10;;
20794;SDS011;28087;-33.874;151.240;2023-06-14T00:16:14;2.55;;;1.00;;
20794;SDS011;28087;-33.874;151.240;2023-06-14T00:18:50;4.60;;;1.10;;
20794;SDS011;28087;-33.874;151.240;2023-06-14T00:21:25;3.15;;;1.13;;
20794;SDS011;28087;-33.874;151.240;2023-06-14T00:24:00;3.50;;;1.15;;
20794;SDS011;28087;-33.874;151.240;2023-06-14T00:26:35;3.53;;;0.90;;
20794;SDS011;28087;-33.874;151.240;2023-06-14T00:29:12;4.82;;;1.00;;
20794;SDS011;28087;-33.874;151.240;2023-06-14T00:31:47;2.97;;;1.00;;
20794;SDS011;28087;-33.874;151.240;2023-06-14T00:34:22;2.72;;;1.00;;
20794;SDS011;28087;-33.874;151.240;2023-06-14T00:37:02;2.80;;;0.90;;
20794;SDS011;28087;-33.874;151.240;2023-06-14T00:39:37;2.95;;;0.68;;
20794;SDS011;28087;-33.874;151.240;2023-06-14T00:42:12;4.05;;;0.80;;
20794;SDS011;28087;-33.874;151.240;2023-06-14T00:44:59;4.40;;;0.70;;
20794;SDS011;28087;-33.874;151.240;2023-06-14T00:47:34;3.05;;;0.70;;
20794;SDS011;28087;-33.874;151.240;2023-06-14T00:50:11;3.35;;;0.80;;
20794;SDS011;28087;-33.874;151.240;2023-06-14T00:52:46;4.18;;;0.80;;
20794;SDS011;28087;-33.874;151.240;2023-06-14T00:55:21;3.45;;;0.90;;
20794;SDS011;28087;-33.874;151.240;2023-06-14T00:57:56;4.80;;;1.00;;
20794;SDS011;28087;-33.874;151.240;2023-06-14T01:00:33;3.13;;;1.00;;
20794;SDS011;28087;-33.874;151.240;2023-06-14T01:03:08;4.38;;;0.70;;
20794;SDS011;28087;-33.874;151.240;2023-06-14T01:05:44;2.47;;;0.70;;
20794;SDS011;28087;-33.874;151.240;2023-06-14T01:08:22;1.48;;;0.60;;
20794;SDS011;28087;-33.874;151.240;2023-06-14T01:11:00;3.10;;;0.68;;
20794;SDS011;28087;-33.874;151.240;2023-06-14T01:13:37;2.30;;;0.73;;
20794;SDS011;28087;-33.874;151.240;2023-06-14T01:16:14;3.33;;;0.80;;
20794;SDS011;28087;-33.874;151.240;2023-06-14T01:18:49;2.22;;;0.70;;
20794;SDS011;28087;-33.874;151.240;2023-06-14T01:21:28;2.20;;;0.70;;
20794;SDS011;28087;-33.874;151.240;2023-06-14T01:24:14;2.78;;;0.52;;
20794;SDS011;28087;-33.874;151.240;2023-06-14T01:26:50;2.60;;;0.70;;
20794;SDS011;28087;-33.874;151.240;2023-06-14T01:29:28;2.13;;;0.57;;
20794;SDS011;28087;-33.874;151.240;2023-06-14T01:32:05;3.65;;;0.70;;
20794;SDS011;28087;-33.874;151.240;2023-06-14T01:34:40;3.15;;;0.80;;
20794;SDS011;28087;-33.874;151.240;2023-06-14T01:37:14;2.03;;;0.63;;
20794;SDS011;28087;-33.874;151.240;2023-06-14T01:39:52;1.90;;;0.68;;
20794;SDS011;28087;-33.874;151.240;2023-06-14T01:42:28;2.50;;;0.80;;
20794;SDS011;28087;-33.874;151.240;2023-06-14T01:45:04;1.92;;;0.70;;
20794;SDS011;28087;-33.874;151.240;2023-06-14T01:47:39;2.85;;;0.88;;
20794;SDS011;28087;-33.874;151.240;2023-06-14T01:50:17;3.90;;;0.80;;
20794;SDS011;28087;-33.874;151.240;2023-06-14T01:52:53;3.00;;;0.70;;
20794;SDS011;28087;-33.874;151.240;2023-06-14T01:55:30;3.00;;;0.70;;
20794;SDS011;28087;-33.874;151.240;2023-06-14T01:58:09;3.22;;;0.80;;
20794;SDS011;28087;-33.874;151.240;2023-06-14T02:00:43;1.98;;;0.77;;
20794;SDS011;28087;-33.874;151.240;2023-06-14T02:03:19;2.90;;;0.68;;
20794;SDS011;28087;-33.874;151.240;2023-06-14T02:05:54;3.30;;;0.80;;
20794;SDS011;28087;-33.874;151.240;2023-06-14T02:08:29;2.50;;;0.63;;
20794;SDS011;28087;-33.874;151.240;2023-06-14T02:11:09;2.33;;;0.77;;
20794;SDS011;28087;-33.874;151.240;2023-06-14T02:13:52;2.22;;;0.80;;
20794;SDS011;28087;-33.874;151.240;2023-06-14T02:16:27;3.28;;;0.80;;
20794;SDS011;28087;-33.874;151.240;2023-06-14T02:19:01;2.45;;;0.90;;
20794;SDS011;28087;-33.874;151.240;2023-06-14T02:21:37;2.53;;;0.80;;
20794;SDS011;28087;-33.874;151.240;2023-06-14T02:24:14;2.40;;;0.80;;
20794;SDS011;28087;-33.874;151.240;2023-06-14T02:26:51;1.85;;;0.80;;
20794;SDS011;28087;-33.874;151.240;2023-06-14T02:29:26;5.88;;;1.10;;
20794;SDS011;28087;-33.874;151.240;2023-06-14T02:32:04;4.82;;;0.90;;
20794;SDS011;28087;-33.874;151.240;2023-06-14T02:34:40;6.03;;;1.10;;
20794;SDS011;28087;-33.874;151.240;2023-06-14T02:37:16;2.88;;;0.82;;
20794;SDS011;28087;-33.874;151.240;2023-06-14T02:39:50;3.15;;;0.95;;
20794;SDS011;28087;-33.874;151.240;2023-06-14T02:42:27;2.85;;;0.70;;
20794;SDS011;28087;-33.874;151.240;2023-06-14T02:45:02;3.70;;;0.90;;
20794;SDS011;28087;-33.874;151.240;2023-06-14T02:47:37;3.13;;;0.60;;
20794;SDS011;28087;-33.874;151.240;2023-06-14T02:50:13;2.53;;;0.60;;
20794;SDS011;28087;-33.874;151.240;2023-06-14T02:52:48;3.55;;;0.70;;
20794;SDS011;28087;-33.874;151.240;2023-06-14T02:55:24;2.38;;;0.60;;
20794;SDS011;28087;-33.874;151.240;2023-06-14T02:58:01;3.30;;;0.70;;
20794;SDS011;28087;-33.874;151.240;2023-06-14T03:00:35;2.10;;;0.75;;
20794;SDS011;28087;-33.874;151.240;2023-06-14T03:03:12;3.55;;;0.65;;
20794;SDS011;28087;-33.874;151.240;2023-06-14T03:05:53;2.28;;;0.80;;
20794;SDS011;28087;-33.874;151.240;2023-06-14T03:08:29;4.63;;;0.90;;
20794;SDS011;28087;-33.874;151.240;2023-06-14T03:11:14;3.00;;;0.70;;
20794;SDS011;28087;-33.874;151.240;2023-06-14T03:13:53;4.07;;;1.20;;
20794;SDS011;28087;-33.874;151.240;2023-06-14T03:16:31;4.55;;;0.82;;
20794;SDS011;28087;-33.874;151.240;2023-06-14T03:19:08;4.07;;;1.60;;
20794;SDS011;28087;-33.874;151.240;2023-06-14T03:21:44;2.80;;;0.95;;
20794;SDS011;28087;-33.874;151.240;2023-06-14T03:24:18;2.25;;;0.70;;
20794;SDS011;28087;-33.874;151.240;2023-06-14T03:26:54;3.22;;;1.00;;
20794;SDS011;28087;-33.874;151.240;2023-06-14T03:29:32;7.53;;;0.90;;
20794;SDS011;28087;-33.874;151.240;2023-06-14T03:32:07;4.75;;;0.90;;
20794;SDS011;28087;-33.874;151.240;2023-06-14T03:34:43;2.40;;;0.80;;
20794;SDS011;28087;-33.874;151.240;2023-06-14T03:37:22;1.92;;;0.60;;
20794;SDS011;28087;-33.874;151.240;2023-06-14T03:39:57;3.67;;;0.70;;
20794;SDS011;28087;-33.874;151.240;2023-06-14T03:42:41;5.35;;;0.93;;
20794;SDS011;28087;-33.874;151.240;2023-06-14T03:45:18;2.35;;;0.80;;
20794;SDS011;28087;-33.874;151.240;2023-06-14T03:47:54;4.65;;;0.70;;
20794;SDS011;28087;-33.874;151.240;2023-06-14T03:50:30;2.70;;;0.90;;
20794;SDS011;28087;-33.874;151.240;2023-06-14T03:53:05;2.83;;;0.80;;
20794;SDS011;28087;-33.874;151.240;2023-06-14T03:55:43;1.70;;;0.50;;
20794;SDS011;28087;-33.874;151.240;2023-06-14T03:58:25;4.20;;;0.70;;
20794;SDS011;28087;-33.874;151.240;2023-06-14T04:01:01;4.50;;;0.90;;
20794;SDS011;28087;-33.874;151.240;2023-06-14T04:03:37;3.10;;;0.90;;
20794;SDS011;28087;-33.874;151.240;2023-06-14T04:06:13;2.28;;;0.60;;
20794;SDS011;28087;-33.874;151.240;2023-06-14T04:08:51;2.42;;;0.80;;
20794;SDS011;28087;-33.874;151.240;2023-06-14T04:11:26;3.80;;;0.80;;
20794;SDS011;28087;-33.874;151.240;2023-06-14T04:14:01;2.63;;;0.60;;
20794;SDS011;28087;-33.874;151.240;2023-06-14T04:16:38;1.75;;;0.60;;
20794;SDS011;28087;-33.874;151.240;2023-06-14T04:19:15;3.47;;;1.00;;
20794;SDS011;28087;-33.874;151.240;2023-06-14T04:21:51;3.20;;;0.68;;
20794;SDS011;28087;-33.874;151.240;2023-06-14T04:24:26;3.88;;;0.80;;
20794;SDS011;28087;-33.874;151.240;2023-06-14T04:27:03;3.33;;;0.93;;
20794;SDS011;28087;-33.874;151.240;2023-06-14T04:29:39;2.90;;;0.70;;
20794;SDS011;28087;-33.874;151.240;2023-06-14T04:32:17;3.50;;;0.70;;
20794;SDS011;28087;-33.874;151.240;2023-06-14T04:34:57;2.83;;;0.70;;
20794;SDS011;28087;-33.874;151.240;2023-06-14T04:37:33;4.03;;;0.60;;
20794;SDS011;28087;-33.874;151.240;2023-06-14T04:40:12;4.40;;;0.80;;
20794;SDS011;28087;-33.874;151.240;2023-06-14T04:42:47;2.38;;;0.70;;
20794;SDS011;28087;-33.874;151.240;2023-06-14T04:45:21;2.80;;;0.73;;
20794;SDS011;28087;-33.874;151.240;2023-06-14T04:48:04;4.35;;;0.80;;
20794;SDS011;28087;-33.874;151.240;2023-06-14T04:50:42;3.20;;;0.80;;
20794;SDS011;28087;-33.874;151.240;2023-06-14T04:53:16;5.32;;;0.75;;
20794;SDS011;28087;-33.874;151.240;2023-06-14T04:55:54;3.13;;;0.88;;
20794;SDS011;28087;-33.874;151.240;2023-06-14T04:58:31;2.90;;;0.80;;
20794;SDS011;28087;-33.874;151.240;2023-06-14T05:01:06;2.72;;;0.75;;
20794;SDS011;28087;-33.874;151.240;2023-06-14T05:03:44;3.15;;;0.70;;
20794;SDS011;28087;-33.874;151.240;2023-06-14T05:06:19;3.65;;;0.80;;
20794;SDS011;28087;-33.874;151.240;2023-06-14T05:08:54;2.65;;;0.70;;
20794;SDS011;28087;-33.874;151.240;2023-06-14T05:11:30;2.70;;;0.80;;
20794;SDS011;28087;-33.874;151.240;2023-06-14T05:14:05;3.58;;;0.80;;
20794;SDS011;28087;-33.874;151.240;2023-06-14T05:16:40;3.70;;;0.95;;
20794;SDS011;28087;-33.874;151.240;2023-06-14T05:19:17;1.80;;;0.60;;
20794;SDS011;28087;-33.874;151.240;2023-06-14T05:21:52;3.78;;;0.90;;
20794;SDS011;28087;-33.874;151.240;2023-06-14T05:24:27;4.72;;;0.80;;
20794;SDS011;28087;-33.874;151.240;2023-06-14T05:27:02;2.90;;;0.80;;
20794;SDS011;28087;-33.874;151.240;2023-06-14T05:29:38;2.63;;;0.60;;
20794;SDS011;28087;-33.874;151.240;2023-06-14T05:32:13;3.65;;;0.80;;
20794;SDS011;28087;-33.874;151.240;2023-06-14T05:34:50;2.88;;;0.70;;
20794;SDS011;28087;-33.874;151.240;2023-06-14T05:37:24;2.42;;;0.75;;
20794;SDS011;28087;-33.874;151.240;2023-06-14T05:39:59;3.13;;;0.70;;
20794;SDS011;28087;-33.874;151.240;2023-06-14T05:42:35;4.20;;;0.80;;
20794;SDS011;28087;-33.874;151.240;2023-06-14T05:45:10;2.95;;;0.80;;
20794;SDS011;28087;-33.874;151.240;2023-06-14T05:47:46;3.08;;;0.90;;
20794;SDS011;28087;-33.874;151.240;2023-06-14T05:50:23;2.25;;;0.70;;
20794;SDS011;28087;-33.874;151.240;2023-06-14T05:52:58;2.15;;;0.60;;
20794;SDS011;28087;-33.874;151.240;2023-06-14T05:55:33;2.25;;;0.68;;
20794;SDS011;28087;-33.874;151.240;2023-06-14T05:58:10;2.55;;;0.85;;
20794;SDS011;28087;-33.874;151.240;2023-06-14T06:00:46;5.72;;;0.88;;
20794;SDS011;28087;-33.874;151.240;2023-06-14T06:03:22;5.05;;;0.80;;
20794;SDS011;28087;-33.874;151.240;2023-06-14T06:06:09;3.90;;;1.00;;
20794;SDS011;28087;-33.874;151.240;2023-06-14T06:09:07;3.42;;;0.80;;
20794;SDS011;28087;-33.874;151.240;2023-06-14T06:12:12;2.03;;;0.68;;
20794;SDS011;28087;-33.874;151.240;2023-06-14T06:14:49;3.00;;;0.70;;
20794;SDS011;28087;-33.874;151.240;2023-06-14T06:17:25;1.95;;;0.68;;
20794;SDS011;28087;-33.874;151.240;2023-06-14T06:20:18;2.10;;;0.70;;
20794;SDS011;28087;-33.874;151.240;2023-06-14T06:23:02;2.58;;;0.70;;
20794;SDS011;28087;-33.874;151.240;2023-06-14T06:25:36;3.08;;;1.00;;
20794;SDS011;28087;-33.874;151.240;2023-06-14T06:28:12;2.92;;;0.90;;
20794;SDS011;28087;-33.874;151.240;2023-06-14T06:30:46;2.58;;;0.80;;
20794;SDS011;28087;-33.874;151.240;2023-06-14T06:33:21;3.92;;;0.88;;
20794;SDS011;28087;-33.874;151.240;2023-06-14T06:35:56;3.00;;;0.90;;
20794;SDS011;28087;-33.874;151.240;2023-06-14T06:38:34;4.68;;;1.00;;
20794;SDS011;28087;-33.874;151.240;2023-06-14T06:41:08;4.65;;;1.27;;
20794;SDS011;28087;-33.874;151.240;2023-06-14T06:43:45;3.97;;;1.15;;
20794;SDS011;28087;-33.874;151.240;2023-06-14T06:46:20;2.67;;;0.90;;
20794;SDS011;28087;-33.874;151.240;2023-06-14T06:48:55;2.88;;;1.17;;
20794;SDS011;28087;-33.874;151.240;2023-06-14T06:51:30;3.92;;;0.90;;
20794;SDS011;28087;-33.874;151.240;2023-06-14T06:54:10;2.45;;;0.80;;
20794;SDS011;28087;-33.874;151.240;2023-06-14T06:56:45;4.70;;;0.93;;
20794;SDS011;28087;-33.874;151.240;2023-06-14T06:59:20;4.20;;;1.00;;
20794;SDS011;28087;-33.874;151.240;2023-06-14T07:01:54;3.90;;;1.05;;
20794;SDS011;28087;-33.874;151.240;2023-06-14T07:04:29;2.75;;;1.00;;
20794;SDS011;28087;-33.874;151.240;2023-06-14T07:07:04;3.58;;;1.33;;
20794;SDS011;28087;-33.874;151.240;2023-06-14T07:09:43;5.65;;;1.08;;
20794;SDS011;28087;-33.874;151.240;2023-06-14T07:12:18;3.63;;;1.10;;
20794;SDS011;28087;-33.874;151.240;2023-06-14T07:14:53;3.90;;;1.05;;
20794;SDS011;28087;-33.874;151.240;2023-06-14T07:17:29;2.97;;;1.10;;
20794;SDS011;28087;-33.874;151.240;2023-06-14T07:20:05;4.90;;;1.13;;
20794;SDS011;28087;-33.874;151.240;2023-06-14T07:22:43;3.08;;;1.00;;
20794;SDS011;28087;-33.874;151.240;2023-06-14T07:25:20;3.17;;;1.00;;
20794;SDS011;28087;-33.874;151.240;2023-06-14T07:27:55;3.83;;;1.00;;
20794;SDS011;28087;-33.874;151.240;2023-06-14T07:30:30;3.38;;;1.10;;
20794;SDS011;28087;-33.874;151.240;2023-06-14T07:33:04;5.15;;;1.00;;
20794;SDS011;28087;-33.874;151.240;2023-06-14T07:35:39;3.22;;;1.10;;
20794;SDS011;28087;-33.874;151.240;2023-06-14T07:38:14;3.83;;;1.13;;
20794;SDS011;28087;-33.874;151.240;2023-06-14T07:40:52;3.22;;;1.00;;
20794;SDS011;28087;-33.874;151.240;2023-06-14T07:43:26;3.72;;;1.10;;
20794;SDS011;28087;-33.874;151.240;2023-06-14T07:46:01;3.28;;;1.10;;
20794;SDS011;28087;-33.874;151.240;2023-06-14T07:48:36;4.57;;;1.45;;
20794;SDS011;28087;-33.874;151.240;2023-06-14T07:51:12;5.55;;;1.38;;
20794;SDS011;28087;-33.874;151.240;2023-06-14T07:53:46;5.85;;;1.90;;
20794;SDS011;28087;-33.874;151.240;2023-06-14T07:56:23;3.35;;;1.35;;
20794;SDS011;28087;-33.874;151.240;2023-06-14T07:58:57;4.55;;;1.30;;
20794;SDS011;28087;-33.874;151.240;2023-06-14T08:01:33;4.28;;;1.42;;
20794;SDS011;28087;-33.874;151.240;2023-06-14T08:04:07;4.55;;;1.52;;
20794;SDS011;28087;-33.874;151.240;2023-06-14T08:06:42;5.20;;;1.75;;
20794;SDS011;28087;-33.874;151.240;2023-06-14T08:09:19;4.38;;;1.60;;
20794;SDS011;28087;-33.874;151.240;2023-06-14T08:11:57;6.45;;;1.80;;
20794;SDS011;28087;-33.874;151.240;2023-06-14T08:14:32;3.45;;;1.30;;
20794;SDS011;28087;-33.874;151.240;2023-06-14T08:17:07;4.72;;;1.50;;
20794;SDS011;28087;-33.874;151.240;2023-06-14T08:19:42;5.82;;;1.85;;
20794;SDS011;28087;-33.874;151.240;2023-06-14T08:22:17;7.80;;;1.90;;
20794;SDS011;28087;-33.874;151.240;2023-06-14T08:24:52;7.50;;;1.95;;
20794;SDS011;28087;-33.874;151.240;2023-06-14T08:27:29;5.25;;;1.70;;
20794;SDS011;28087;-33.874;151.240;2023-06-14T08:30:04;4.32;;;1.55;;
20794;SDS011;28087;-33.874;151.240;2023-06-14T08:32:41;6.70;;;2.00;;
20794;SDS011;28087;-33.874;151.240;2023-06-14T08:35:21;5.13;;;1.90;;
20794;SDS011;28087;-33.874;151.240;2023-06-14T08:37:56;6.78;;;1.80;;
20794;SDS011;28087;-33.874;151.240;2023-06-14T08:40:31;5.30;;;2.13;;
20794;SDS011;28087;-33.874;151.240;2023-06-14T08:43:11;6.93;;;2.10;;
20794;SDS011;28087;-33.874;151.240;2023-06-14T08:45:45;6.10;;;2.40;;
20794;SDS011;28087;-33.874;151.240;2023-06-14T08:48:21;5.13;;;1.80;;
20794;SDS011;28087;-33.874;151.240;2023-06-14T08:50:58;9.35;;;2.75;;
20794;SDS011;28087;-33.874;151.240;2023-06-14T08:53:34;6.50;;;2.55;;
20794;SDS011;28087;-33.874;151.240;2023-06-14T08:56:12;5.63;;;2.08;;
20794;SDS011;28087;-33.874;151.240;2023-06-14T08:58:49;6.20;;;1.95;;
20794;SDS011;28087;-33.874;151.240;2023-06-14T09:01:23;5.05;;;1.65;;
20794;SDS011;28087;-33.874;151.240;2023-06-14T09:03:59;4.80;;;1.70;;
20794;SDS011;28087;-33.874;151.240;2023-06-14T09:06:33;4.68;;;1.70;;
20794;SDS011;28087;-33.874;151.240;2023-06-14T09:09:08;5.10;;;1.75;;
20794;SDS011;28087;-33.874;151.240;2023-06-14T09:11:43;5.20;;;1.98;;
20794;SDS011;28087;-33.874;151.240;2023-06-14T09:14:23;4.90;;;2.00;;
20794;SDS011;28087;-33.874;151.240;2023-06-14T09:16:57;8.02;;;2.28;;
20794;SDS011;28087;-33.874;151.240;2023-06-14T09:19:32;4.82;;;1.80;;
20794;SDS011;28087;-33.874;151.240;2023-06-14T09:22:09;7.57;;;2.70;;
20794;SDS011;28087;-33.874;151.240;2023-06-14T09:24:46;7.45;;;2.28;;
20794;SDS011;28087;-33.874;151.240;2023-06-14T09:27:20;4.80;;;2.13;;
20794;SDS011;28087;-33.874;151.240;2023-06-14T09:29:57;6.15;;;1.90;;
20794;SDS011;28087;-33.874;151.240;2023-06-14T09:32:32;4.10;;;1.70;;
20794;SDS011;28087;-33.874;151.240;2023-06-14T09:35:11;4.57;;;1.70;;
20794;SDS011;28087;-33.874;151.240;2023-06-14T09:37:46;4.82;;;1.70;;
20794;SDS011;28087;-33.874;151.240;2023-06-14T09:40:21;4.35;;;1.65;;
20794;SDS011;28087;-33.874;151.240;2023-06-14T09:42:56;4.70;;;1.42;;
20794;SDS011;28087;-33.874;151.240;2023-06-14T09:45:35;3.88;;;1.40;;
20794;SDS011;28087;-33.874;151.240;2023-06-14T09:48:10;5.53;;;1.60;;
20794;SDS011;28087;-33.874;151.240;2023-06-14T09:50:49;5.63;;;1.60;;
20794;SDS011;28087;-33.874;151.240;2023-06-14T09:53:24;4.10;;;1.50;;
20794;SDS011;28087;-33.874;151.240;2023-06-14T09:56:01;5.40;;;1.52;;
20794;SDS011;28087;-33.874;151.240;2023-06-14T09:58:37;3.30;;;1.45;;
20794;SDS011;28087;-33.874;151.240;2023-06-14T10:01:30;4.15;;;1.50;;
20794;SDS011;28087;-33.874;151.240;2023-06-14T10:04:05;5.97;;;1.67;;
20794;SDS011;28087;-33.874;151.240;2023-06-14T10:06:41;4.18;;;1.60;;
20794;SDS011;28087;-33.874;151.240;2023-06-14T10:09:17;6.07;;;1.80;;
20794;SDS011;28087;-33.874;151.240;2023-06-14T10:11:52;6.47;;;1.88;;
20794;SDS011;28087;-33.874;151.240;2023-06-14T10:14:27;3.92;;;1.45;;
20794;SDS011;28087;-33.874;151.240;2023-06-14T10:17:04;3.90;;;1.45;;
20794;SDS011;28087;-33.874;151.240;2023-06-14T10:19:41;5.05;;;1.40;;
20794;SDS011;28087;-33.874;151.240;2023-06-14T10:22:19;4.70;;;1.60;;
20794;SDS011;28087;-33.874;151.240;2023-06-14T10:24:57;4.35;;;1.63;;
20794;SDS011;28087;-33.874;151.240;2023-06-14T10:27:31;4.47;;;1.52;;
20794;SDS011;28087;-33.874;151.240;2023-06-14T10:30:07;6.10;;;1.67;;
20794;SDS011;28087;-33.874;151.240;2023-06-14T10:35:34;9.55;;;2.17;;
20794;SDS011;28087;-33.874;151.240;2023-06-14T10:38:11;4.78;;;2.20;;
20794;SDS011;28087;-33.874;151.240;2023-06-14T10:40:45;4.05;;;1.80;;
20794;SDS011;28087;-33.874;151.240;2023-06-14T10:43:26;5.15;;;1.77;;
20794;SDS011;28087;-33.874;151.240;2023-06-14T10:46:15;4.80;;;1.52;;
20794;SDS011;28087;-33.874;151.240;2023-06-14T10:48:53;7.10;;;1.77;;
20794;SDS011;28087;-33.874;151.240;2023-06-14T10:51:41;5.97;;;1.95;;
20794;SDS011;28087;-33.874;151.240;2023-06-14T10:54:18;3.75;;;1.70;;
20794;SDS011;28087;-33.874;151.240;2023-06-14T10:56:56;6.10;;;1.88;;
20794;SDS011;28087;-33.874;151.240;2023-06-14T10:59:32;4.68;;;1.80;;
20794;SDS011;28087;-33.874;151.240;2023-06-14T11:02:13;5.35;;;1.50;;
20794;SDS011;28087;-33.874;151.240;2023-06-14T11:04:54;7.68;;;1.95;;
20794;SDS011;28087;-33.874;151.240;2023-06-14T11:07:38;5.13;;;1.70;;
20794;SDS011;28087;-33.874;151.240;2023-06-14T11:10:20;6.22;;;1.70;;
20794;SDS011;28087;-33.874;151.240;2023-06-14T11:12:57;5.60;;;1.60;;
20794;SDS011;28087;-33.874;151.240;2023-06-14T11:15:34;5.25;;;1.50;;
20794;SDS011;28087;-33.874;151.240;2023-06-14T11:18:09;6.18;;;1.67;;
20794;SDS011;28087;-33.874;151.240;2023-06-14T11:20:45;5.68;;;1.63;;
20794;SDS011;28087;-33.874;151.240;2023-06-14T11:23:22;5.68;;;1.63;;
20794;SDS011;28087;-33.874;151.240;2023-06-14T11:25:56;5.50;;;1.60;;
20794;SDS011;28087;-33.874;151.240;2023-06-14T11:28:38;5.55;;;1.50;;
20794;SDS011;28087;-33.874;151.240;2023-06-14T11:31:13;3.83;;;1.27;;
20794;SDS011;28087;-33.874;151.240;2023-06-14T11:33:51;4.80;;;1.35;;
20794;SDS011;28087;-33.874;151.240;2023-06-14T11:36:38;6.28;;;1.80;;
20794;SDS011;28087;-33.874;151.240;2023-06-14T11:39:16;4.57;;;1.60;;
20794;SDS011;28087;-33.874;151.240;2023-06-14T11:41:51;4.38;;;1.60;;
20794;SDS011;28087;-33.874;151.240;2023-06-14T11:44:27;4.30;;;1.58;;
20794;SDS011;28087;-33.874;151.240;2023-06-14T11:47:04;5.50;;;1.50;;
20794;SDS011;28087;-33.874;151.240;2023-06-14T11:49:39;4.20;;;1.30;;
20794;SDS011;28087;-33.874;151.240;2023-06-14T11:52:21;4.15;;;1.17;;
20794;SDS011;28087;-33.874;151.240;2023-06-14T11:55:05;3.83;;;1.30;;
20794;SDS011;28087;-33.874;151.240;2023-06-14T11:57:40;4.10;;;1.50;;
20794;SDS011;28087;-33.874;151.240;2023-06-14T12:00:16;4.90;;;1.30;;
20794;SDS011;28087;-33.874;151.240;2023-06-14T12:02:53;4.65;;;1.20;;
20794;SDS011;28087;-33.874;151.240;2023-06-14T12:05:29;5.22;;;1.40;;
20794;SDS011;28087;-33.874;151.240;2023-06-14T12:08:06;4.38;;;1.25;;
20794;SDS011;28087;-33.874;151.240;2023-06-14T12:10:44;4.72;;;1.30;;
20794;SDS011;28087;-33.874;151.240;2023-06-14T12:13:18;4.25;;;1.45;;
20794;SDS011;28087;-33.874;151.240;2023-06-14T12:15:56;3.20;;;1.08;;
20794;SDS011;28087;-33.874;151.240;2023-06-14T12:18:35;5.38;;;1.65;;
20794;SDS011;28087;-33.874;151.240;2023-06-14T12:21:16;6.60;;;1.30;;
20794;SDS011;28087;-33.874;151.240;2023-06-14T12:23:51;4.88;;;1.25;;
20794;SDS011;28087;-33.874;151.240;2023-06-14T12:26:30;5.78;;;1.40;;
20794;SDS011;28087;-33.874;151.240;2023-06-14T12:29:05;3.88;;;1.13;;
20794;SDS011;28087;-33.874;151.240;2023-06-14T12:31:41;5.13;;;1.30;;
20794;SDS011;28087;-33.874;151.240;2023-06-14T12:34:16;4.25;;;1.13;;
20794;SDS011;28087;-33.874;151.240;2023-06-14T12:36:54;3.95;;;1.08;;
20794;SDS011;28087;-33.874;151.240;2023-06-14T12:39:30;4.88;;;1.60;;
20794;SDS011;28087;-33.874;151.240;2023-06-14T12:42:08;4.78;;;1.40;;
20794;SDS011;28087;-33.874;151.240;2023-06-14T12:44:45;5.07;;;1.05;;
20794;SDS011;28087;-33.874;151.240;2023-06-14T12:47:20;4.07;;;1.10;;
20794;SDS011;28087;-33.874;151.240;2023-06-14T12:49:57;4.85;;;1.20;;
20794;SDS011;28087;-33.874;151.240;2023-06-14T12:52:37;5.05;;;1.38;;
20794;SDS011;28087;-33.874;151.240;2023-06-14T12:55:12;3.85;;;1.30;;
20794;SDS011;28087;-33.874;151.240;2023-06-14T12:57:53;4.22;;;1.30;;
20794;SDS011;28087;-33.874;151.240;2023-06-14T13:00:37;4.85;;;1.10;;
20794;SDS011;28087;-33.874;151.240;2023-06-14T13:03:17;4.72;;;1.05;;
20794;SDS011;28087;-33.874;151.240;2023-06-14T13:05:57;4.63;;;1.38;;
20794;SDS011;28087;-33.874;151.240;2023-06-14T13:08:33;4.28;;;1.20;;
20794;SDS011;28087;-33.874;151.240;2023-06-14T13:11:08;5.75;;;1.23;;
20794;SDS011;28087;-33.874;151.240;2023-06-14T13:13:44;4.03;;;1.10;;
20794;SDS011;28087;-33.874;151.240;2023-06-14T13:16:27;4.00;;;1.15;;
20794;SDS011;28087;-33.874;151.240;2023-06-14T13:19:12;3.67;;;1.10;;
20794;SDS011;28087;-33.874;151.240;2023-06-14T13:21:47;4.63;;;1.25;;
20794;SDS011;28087;-33.874;151.240;2023-06-14T13:24:23;4.45;;;1.20;;
20794;SDS011;28087;-33.874;151.240;2023-06-14T13:27:00;4.22;;;1.20;;
20794;SDS011;28087;-33.874;151.240;2023-06-14T13:29:37;7.65;;;1.20;;
20794;SDS011;28087;-33.874;151.240;2023-06-14T13:32:26;5.95;;;1.20;;
20794;SDS011;28087;-33.874;151.240;2023-06-14T13:35:09;4.20;;;1.20;;
20794;SDS011;28087;-33.874;151.240;2023-06-14T13:37:54;3.90;;;1.15;;
20794;SDS011;28087;-33.874;151.240;2023-06-14T13:40:49;3.13;;;1.13;;
20794;SDS011;28087;-33.874;151.240;2023-06-14T13:43:44;3.35;;;0.90;;
20794;SDS011;28087;-33.874;151.240;2023-06-14T13:46:23;3.03;;;1.02;;
20794;SDS011;28087;-33.874;151.240;2023-06-14T13:48:59;6.55;;;1.40;;
20794;SDS011;28087;-33.874;151.240;2023-06-14T13:51:38;4.72;;;1.17;;
20794;SDS011;28087;-33.874;151.240;2023-06-14T13:54:48;4.95;;;0.90;;
20794;SDS011;28087;-33.874;151.240;2023-06-14T13:57:24;4.43;;;1.00;;
20794;SDS011;28087;-33.874;151.240;2023-06-14T14:03:00;3.58;;;0.98;;
20794;SDS011;28087;-33.874;151.240;2023-06-14T14:05:36;4.45;;;1.10;;
20794;SDS011;28087;-33.874;151.240;2023-06-14T14:08:13;5.28;;;1.13;;
20794;SDS011;28087;-33.874;151.240;2023-06-14T14:10:50;5.85;;;1.23;;
20794;SDS011;28087;-33.874;151.240;2023-06-14T14:13:26;6.47;;;1.13;;
20794;SDS011;28087;-33.874;151.240;2023-06-14T14:16:02;3.80;;;0.98;;
20794;SDS011;28087;-33.874;151.240;2023-06-14T14:18:40;3.20;;;1.10;;
20794;SDS011;28087;-33.874;151.240;2023-06-14T14:21:26;3.35;;;0.90;;
20794;SDS011;28087;-33.874;151.240;2023-06-14T14:24:04;5.15;;;1.10;;
20794;SDS011;28087;-33.874;151.240;2023-06-14T14:26:45;4.05;;;1.02;;
20794;SDS011;28087;-33.874;151.240;2023-06-14T14:29:24;2.95;;;0.90;;
20794;SDS011;28087;-33.874;151.240;2023-06-14T14:32:04;3.35;;;0.90;;
20794;SDS011;28087;-33.874;151.240;2023-06-14T14:34:53;5.60;;;1.23;;
20794;SDS011;28087;-33.874;151.240;2023-06-14T14:37:29;3.92;;;1.20;;
20794;SDS011;28087;-33.874;151.240;2023-06-14T14:40:26;3.42;;;1.00;;
20794;SDS011;28087;-33.874;151.240;2023-06-14T14:43:09;3.83;;;0.93;;
20794;SDS011;28087;-33.874;151.240;2023-06-14T14:45:45;5.22;;;1.10;;
20794;SDS011;28087;-33.874;151.240;2023-06-14T14:48:42;4.43;;;1.05;;
20794;SDS011;28087;-33.874;151.240;2023-06-14T14:51:26;6.20;;;1.10;;
20794;SDS011;28087;-33.874;151.240;2023-06-14T14:54:10;3.92;;;1.02;;
20794;SDS011;28087;-33.874;151.240;2023-06-14T14:56:52;3.53;;;0.80;;
20794;SDS011;28087;-33.874;151.240;2023-06-14T14:59:29;4.50;;;1.15;;
20794;SDS011;28087;-33.874;151.240;2023-06-14T15:02:14;3.55;;;0.90;;
20794;SDS011;28087;-33.874;151.240;2023-06-14T15:04:50;3.75;;;0.93;;
20794;SDS011;28087;-33.874;151.240;2023-06-14T15:07:31;5.10;;;1.05;;
20794;SDS011;28087;-33.874;151.240;2023-06-14T15:10:19;4.20;;;1.10;;
20794;SDS011;28087;-33.874;151.240;2023-06-14T15:12:54;4.80;;;0.90;;